Terminal Aerodrome Forecast
Issued by NWS

Home | Current Version | Previous Version | Text Only | Print | Product List | Glossary On
Versions: 1 2 3 4 5 6 7 8 9 10 11 12 13 14 15 16 17 18 19
000
FTUS44 KEWX 261100
TAFSSF
TAF
KSSF 261120Z 2612/2712 17008KT P6SM SCT015
     FM261900 18016KT P6SM FEW060
     FM270900 18007KT P6SM BKN010=

USA.gov is the U.S. government's official web portal to all federal, state and local government web resources and services.